Albia, IA (52531)

12:30 AM CDT on July 29, 2016 (GMT -0500)
rusty66 | | Change Station

Elev 850 ft 41.15 °N, 92.77 °W | Updated 8 minutes ago

Clear
Clear
65.7 °F
Feels Like 65.7 °F
N
0.0
Wind Variable Wind from West

Today
High -- | Low -- °F
--% Chance of Precip.
Yesterday
High -- | Low -- °F
Precip. -- in
Pressure 29.96 in
Visibility 10.0 miles
Clouds Clear
Dew Point 64 °F
Humidity 96%
Rainfall 0.00 in
Snow Depth Not available.
6:04 AM 8:29 PM
Waning Crescent, 25% visible
METAR KOTM 290453Z AUTO 30004KT 10SM CLR 18/17 A2997 RMK AO2 SLP145 T01830172
Pressure 29.96 in
Visibility 10.0 miles
Clouds Clear
Dew Point 64 °F
Humidity 96%
Rainfall 0.00 in
Snow Depth Not available.
6:04 AM 8:29 PM
Waning Crescent, 25% visible
METAR KOTM 290453Z AUTO 30004KT 10SM CLR 18/17 A2997 RMK AO2 SLP145 T01830172

10-Day Weather Forecast

Almanac

Astronomy

Jul. 29, 2016 Rise Set
Actual Time
Civil Twilight
Nautical Twilight
Astronomical Twilight
Moon
Length of Visible Light
Length of Day
Tomorrow will be .
, % of the Moon is Illuminated

Today's Extremes

State Highs State Lows

Community

WunderPhotos

Upload Photos

1,928,297 photos uploaded!

WunderBlog® & News

Nearby

Air Quality

  Air Quality AQ Index Pollutant
Not available.

Snow Depth

Station Depth Elevation

Earthquake Activity

City Distance Mag. Time & Date
Minimum magnitude displayed is 2.5.

Coastal Water Temperatures

Place Temperature

Stations

Nearby Weather Stations

Station Location Temp. Windchill Dew Point Humidity Wind Precip. Elev Updated Type
                   

Watches & Warnings

There are currently no watches in effect.